sensor_id;sensor_type;location;lat;lon;timestamp;temperature;humidity
25732;DHT22;13585;50.864;4.406;2023-05-16T00:00:27;22.90;55.60
25732;DHT22;13585;50.864;4.406;2023-05-16T00:02:53;22.80;55.60
25732;DHT22;13585;50.864;4.406;2023-05-16T00:05:18;22.80;55.50
25732;DHT22;13585;50.864;4.406;2023-05-16T00:07:45;22.80;55.40
25732;DHT22;13585;50.864;4.406;2023-05-16T00:10:12;22.80;55.40
25732;DHT22;13585;50.864;4.406;2023-05-16T00:12:38;22.80;55.30
25732;DHT22;13585;50.864;4.406;2023-05-16T00:15:05;22.80;55.30
25732;DHT22;13585;50.864;4.406;2023-05-16T00:17:33;22.80;55.30
25732;DHT22;13585;50.864;4.406;2023-05-16T00:20:00;22.80;55.20
25732;DHT22;13585;50.864;4.406;2023-05-16T00:22:26;22.80;55.20
25732;DHT22;13585;50.864;4.406;2023-05-16T00:24:52;22.80;55.10
25732;DHT22;13585;50.864;4.406;2023-05-16T00:27:17;22.80;55.10
25732;DHT22;13585;50.864;4.406;2023-05-16T00:29:43;22.80;55.70
25732;DHT22;13585;50.864;4.406;2023-05-16T00:32:08;22.80;55.00
25732;DHT22;13585;50.864;4.406;2023-05-16T00:34:34;22.80;55.00
25732;DHT22;13585;50.864;4.406;2023-05-16T00:37:00;22.80;55.00
25732;DHT22;13585;50.864;4.406;2023-05-16T00:39:26;22.70;54.90
25732;DHT22;13585;50.864;4.406;2023-05-16T00:41:51;22.80;55.00
25732;DHT22;13585;50.864;4.406;2023-05-16T00:44:17;22.80;54.90
25732;DHT22;13585;50.864;4.406;2023-05-16T00:46:43;22.80;54.90
25732;DHT22;13585;50.864;4.406;2023-05-16T00:49:09;22.70;54.80
25732;DHT22;13585;50.864;4.406;2023-05-16T00:51:35;22.70;54.70
25732;DHT22;13585;50.864;4.406;2023-05-16T00:54:03;22.80;54.80
25732;DHT22;13585;50.864;4.406;2023-05-16T00:56:29;22.70;55.30
25732;DHT22;13585;50.864;4.406;2023-05-16T00:58:55;22.70;54.60
25732;DHT22;13585;50.864;4.406;2023-05-16T01:01:22;22.70;54.60
25732;DHT22;13585;50.864;4.406;2023-05-16T01:03:49;22.70;54.60
25732;DHT22;13585;50.864;4.406;2023-05-16T01:06:15;22.70;54.50
25732;DHT22;13585;50.864;4.406;2023-05-16T01:08:40;22.70;54.50
25732;DHT22;13585;50.864;4.406;2023-05-16T01:11:29;22.70;54.40
25732;DHT22;13585;50.864;4.406;2023-05-16T01:14:11;22.70;54.50
25732;DHT22;13585;50.864;4.406;2023-05-16T01:16:46;22.70;54.40
25732;DHT22;13585;50.864;4.406;2023-05-16T01:27:46;22.70;54.30
25732;DHT22;13585;50.864;4.406;2023-05-16T01:30:17;22.70;54.20
25732;DHT22;13585;50.864;4.406;2023-05-16T01:32:43;22.70;54.30
25732;DHT22;13585;50.864;4.406;2023-05-16T01:35:12;22.70;54.20
25732;DHT22;13585;50.864;4.406;2023-05-16T01:43:42;22.70;54.10
25732;DHT22;13585;50.864;4.406;2023-05-16T01:46:13;22.70;54.00
25732;DHT22;13585;50.864;4.406;2023-05-16T01:48:48;22.70;54.00
25732;DHT22;13585;50.864;4.406;2023-05-16T01:51:16;22.60;54.00
25732;DHT22;13585;50.864;4.406;2023-05-16T01:53:42;22.70;54.00
25732;DHT22;13585;50.864;4.406;2023-05-16T01:56:14;22.70;53.90
25732;DHT22;13585;50.864;4.406;2023-05-16T01:58:40;22.60;53.90
25732;DHT22;13585;50.864;4.406;2023-05-16T02:01:06;22.70;53.90
25732;DHT22;13585;50.864;4.406;2023-05-16T02:03:33;22.60;53.80
25732;DHT22;13585;50.864;4.406;2023-05-16T02:05:59;22.60;53.80
25732;DHT22;13585;50.864;4.406;2023-05-16T02:08:26;22.60;53.80
25732;DHT22;13585;50.864;4.406;2023-05-16T02:10:52;22.60;53.80
25732;DHT22;13585;50.864;4.406;2023-05-16T02:13:18;22.60;53.70
25732;DHT22;13585;50.864;4.406;2023-05-16T02:15:44;22.60;53.70
25732;DHT22;13585;50.864;4.406;2023-05-16T02:18:09;22.60;53.70
25732;DHT22;13585;50.864;4.406;2023-05-16T02:20:35;22.60;53.70
25732;DHT22;13585;50.864;4.406;2023-05-16T02:23:01;22.60;53.60
25732;DHT22;13585;50.864;4.406;2023-05-16T02:25:27;22.60;53.60
25732;DHT22;13585;50.864;4.406;2023-05-16T02:27:54;22.60;53.60
25732;DHT22;13585;50.864;4.406;2023-05-16T02:30:19;22.60;53.60
25732;DHT22;13585;50.864;4.406;2023-05-16T02:32:45;22.60;53.50
25732;DHT22;13585;50.864;4.406;2023-05-16T02:35:11;22.60;53.50
25732;DHT22;13585;50.864;4.406;2023-05-16T02:37:36;22.60;53.50
25732;DHT22;13585;50.864;4.406;2023-05-16T02:40:03;22.60;53.50
25732;DHT22;13585;50.864;4.406;2023-05-16T02:42:32;22.60;53.40
25732;DHT22;13585;50.864;4.406;2023-05-16T02:44:58;22.60;53.40
25732;DHT22;13585;50.864;4.406;2023-05-16T02:47:23;22.60;53.40
25732;DHT22;13585;50.864;4.406;2023-05-16T02:49:49;22.60;53.30
25732;DHT22;13585;50.864;4.406;2023-05-16T02:52:17;22.60;53.30
25732;DHT22;13585;50.864;4.406;2023-05-16T02:54:43;22.60;53.30
25732;DHT22;13585;50.864;4.406;2023-05-16T02:57:09;22.60;53.20
25732;DHT22;13585;50.864;4.406;2023-05-16T02:59:34;22.60;53.20
25732;DHT22;13585;50.864;4.406;2023-05-16T03:02:01;22.60;53.20
25732;DHT22;13585;50.864;4.406;2023-05-16T03:04:26;22.60;53.20
25732;DHT22;13585;50.864;4.406;2023-05-16T03:06:52;22.60;53.20
25732;DHT22;13585;50.864;4.406;2023-05-16T03:09:18;22.60;53.10
25732;DHT22;13585;50.864;4.406;2023-05-16T03:11:44;22.60;53.20
25732;DHT22;13585;50.864;4.406;2023-05-16T03:14:10;22.50;53.10
25732;DHT22;13585;50.864;4.406;2023-05-16T03:16:36;22.60;53.10
25732;DHT22;13585;50.864;4.406;2023-05-16T03:19:03;22.50;53.00
25732;DHT22;13585;50.864;4.406;2023-05-16T03:21:29;22.50;53.00
25732;DHT22;13585;50.864;4.406;2023-05-16T03:23:56;22.50;53.00
25732;DHT22;13585;50.864;4.406;2023-05-16T03:26:25;22.50;52.90
25732;DHT22;13585;50.864;4.406;2023-05-16T03:28:51;22.50;52.90
25732;DHT22;13585;50.864;4.406;2023-05-16T03:31:17;22.50;52.90
25732;DHT22;13585;50.864;4.406;2023-05-16T03:33:43;22.50;52.90
25732;DHT22;13585;50.864;4.406;2023-05-16T03:36:09;22.50;52.80
25732;DHT22;13585;50.864;4.406;2023-05-16T03:38:35;22.50;52.80
25732;DHT22;13585;50.864;4.406;2023-05-16T03:41:01;22.50;52.80
25732;DHT22;13585;50.864;4.406;2023-05-16T03:43:27;22.50;52.80
25732;DHT22;13585;50.864;4.406;2023-05-16T03:45:52;22.50;52.80
25732;DHT22;13585;50.864;4.406;2023-05-16T03:48:18;22.50;52.80
25732;DHT22;13585;50.864;4.406;2023-05-16T03:50:44;22.50;52.80
25732;DHT22;13585;50.864;4.406;2023-05-16T03:53:10;22.50;52.80
25732;DHT22;13585;50.864;4.406;2023-05-16T03:55:36;22.50;52.80
25732;DHT22;13585;50.864;4.406;2023-05-16T03:58:02;22.50;52.80
25732;DHT22;13585;50.864;4.406;2023-05-16T04:00:27;22.50;52.80
25732;DHT22;13585;50.864;4.406;2023-05-16T04:02:53;22.50;52.80
25732;DHT22;13585;50.864;4.406;2023-05-16T04:05:18;22.50;52.80
25732;DHT22;13585;50.864;4.406;2023-05-16T04:07:44;22.50;52.80
25732;DHT22;13585;50.864;4.406;2023-05-16T04:10:10;22.50;52.80
25732;DHT22;13585;50.864;4.406;2023-05-16T04:12:36;22.50;52.80
25732;DHT22;13585;50.864;4.406;2023-05-16T04:15:03;22.50;52.70
25732;DHT22;13585;50.864;4.406;2023-05-16T04:17:28;22.40;52.70
25732;DHT22;13585;50.864;4.406;2023-05-16T04:19:54;22.40;52.70
25732;DHT22;13585;50.864;4.406;2023-05-16T04:22:21;22.40;52.60
25732;DHT22;13585;50.864;4.406;2023-05-16T04:24:47;22.40;52.60
25732;DHT22;13585;50.864;4.406;2023-05-16T04:27:13;22.50;52.70
25732;DHT22;13585;50.864;4.406;2023-05-16T04:29:39;22.40;52.60
25732;DHT22;13585;50.864;4.406;2023-05-16T04:32:05;22.40;52.60
25732;DHT22;13585;50.864;4.406;2023-05-16T04:34:32;22.50;52.60
25732;DHT22;13585;50.864;4.406;2023-05-16T04:36:58;22.40;52.60
25732;DHT22;13585;50.864;4.406;2023-05-16T04:39:24;22.40;52.60
25732;DHT22;13585;50.864;4.406;2023-05-16T04:41:50;22.40;52.60
25732;DHT22;13585;50.864;4.406;2023-05-16T04:44:16;22.40;52.50
25732;DHT22;13585;50.864;4.406;2023-05-16T04:46:41;22.40;52.50
25732;DHT22;13585;50.864;4.406;2023-05-16T04:49:07;22.40;52.50
25732;DHT22;13585;50.864;4.406;2023-05-16T04:51:33;22.40;52.50
25732;DHT22;13585;50.864;4.406;2023-05-16T04:53:59;22.40;52.50
25732;DHT22;13585;50.864;4.406;2023-05-16T04:56:25;22.40;52.50
25732;DHT22;13585;50.864;4.406;2023-05-16T04:58:54;22.40;52.50
25732;DHT22;13585;50.864;4.406;2023-05-16T05:01:20;22.40;52.50
25732;DHT22;13585;50.864;4.406;2023-05-16T05:03:45;22.40;52.50
25732;DHT22;13585;50.864;4.406;2023-05-16T05:06:11;22.40;52.50
25732;DHT22;13585;50.864;4.406;2023-05-16T05:08:37;22.40;52.40
25732;DHT22;13585;50.864;4.406;2023-05-16T05:11:02;22.40;52.40
25732;DHT22;13585;50.864;4.406;2023-05-16T05:13:28;22.40;52.40
25732;DHT22;13585;50.864;4.406;2023-05-16T05:15:53;22.40;52.40
25732;DHT22;13585;50.864;4.406;2023-05-16T05:18:19;22.40;52.40
25732;DHT22;13585;50.864;4.406;2023-05-16T05:20:45;22.40;52.40
25732;DHT22;13585;50.864;4.406;2023-05-16T05:23:10;22.40;52.40
25732;DHT22;13585;50.864;4.406;2023-05-16T05:25:38;22.40;52.40
25732;DHT22;13585;50.864;4.406;2023-05-16T05:28:04;22.40;52.40
25732;DHT22;13585;50.864;4.406;2023-05-16T05:30:30;22.40;52.50
25732;DHT22;13585;50.864;4.406;2023-05-16T05:32:56;22.40;52.50
25732;DHT22;13585;50.864;4.406;2023-05-16T05:35:21;22.40;52.60
25732;DHT22;13585;50.864;4.406;2023-05-16T05:37:47;22.40;52.60
25732;DHT22;13585;50.864;4.406;2023-05-16T05:40:13;22.40;52.60
25732;DHT22;13585;50.864;4.406;2023-05-16T05:42:38;22.40;52.70
25732;DHT22;13585;50.864;4.406;2023-05-16T05:45:04;22.40;52.80
25732;DHT22;13585;50.864;4.406;2023-05-16T05:47:32;22.30;52.70
25732;DHT22;13585;50.864;4.406;2023-05-16T05:49:58;22.40;52.80
25732;DHT22;13585;50.864;4.406;2023-05-16T05:52:24;22.40;52.80
25732;DHT22;13585;50.864;4.406;2023-05-16T05:54:49;22.40;52.90
25732;DHT22;13585;50.864;4.406;2023-05-16T05:57:15;22.40;52.90
25732;DHT22;13585;50.864;4.406;2023-05-16T05:59:41;22.40;52.90
25732;DHT22;13585;50.864;4.406;2023-05-16T06:02:07;22.40;53.00
25732;DHT22;13585;50.864;4.406;2023-05-16T06:04:32;22.40;53.00
25732;DHT22;13585;50.864;4.406;2023-05-16T06:06:58;22.40;53.10
25732;DHT22;13585;50.864;4.406;2023-05-16T06:09:23;22.40;53.00
25732;DHT22;13585;50.864;4.406;2023-05-16T06:11:49;22.40;53.10
25732;DHT22;13585;50.864;4.406;2023-05-16T06:14:15;22.40;53.10
25732;DHT22;13585;50.864;4.406;2023-05-16T06:16:40;22.30;53.20
25732;DHT22;13585;50.864;4.406;2023-05-16T06:19:07;22.30;53.20
25732;DHT22;13585;50.864;4.406;2023-05-16T06:21:32;22.40;53.20
25732;DHT22;13585;50.864;4.406;2023-05-16T06:23:58;22.30;53.10
25732;DHT22;13585;50.864;4.406;2023-05-16T06:26:24;22.40;53.10
25732;DHT22;13585;50.864;4.406;2023-05-16T06:28:49;22.40;53.10
25732;DHT22;13585;50.864;4.406;2023-05-16T06:31:15;22.40;53.10
25732;DHT22;13585;50.864;4.406;2023-05-16T06:33:40;22.40;53.20
25732;DHT22;13585;50.864;4.406;2023-05-16T06:36:06;22.30;53.20
25732;DHT22;13585;50.864;4.406;2023-05-16T06:38:32;22.40;53.30
25732;DHT22;13585;50.864;4.406;2023-05-16T06:40:58;22.30;53.50
25732;DHT22;13585;50.864;4.406;2023-05-16T06:43:23;22.30;53.60
25732;DHT22;13585;50.864;4.406;2023-05-16T06:45:49;22.40;53.80
25732;DHT22;13585;50.864;4.406;2023-05-16T06:48:16;22.30;53.90
25732;DHT22;13585;50.864;4.406;2023-05-16T06:50:46;22.30;53.90
25732;DHT22;13585;50.864;4.406;2023-05-16T06:53:11;22.30;54.10
25732;DHT22;13585;50.864;4.406;2023-05-16T06:55:37;22.30;54.10
25732;DHT22;13585;50.864;4.406;2023-05-16T06:58:02;22.30;54.10
25732;DHT22;13585;50.864;4.406;2023-05-16T07:00:28;22.30;54.20
25732;DHT22;13585;50.864;4.406;2023-05-16T07:02:53;22.30;54.30
25732;DHT22;13585;50.864;4.406;2023-05-16T07:05:19;22.30;54.30
25732;DHT22;13585;50.864;4.406;2023-05-16T07:07:45;22.30;54.30
25732;DHT22;13585;50.864;4.406;2023-05-16T07:10:11;22.20;54.30
25732;DHT22;13585;50.864;4.406;2023-05-16T07:12:36;22.20;54.30
25732;DHT22;13585;50.864;4.406;2023-05-16T07:15:03;22.40;54.50
25732;DHT22;13585;50.864;4.406;2023-05-16T07:17:29;22.30;54.40
25732;DHT22;13585;50.864;4.406;2023-05-16T07:19:54;22.30;54.50
25732;DHT22;13585;50.864;4.406;2023-05-16T07:22:20;22.20;54.40
25732;DHT22;13585;50.864;4.406;2023-05-16T07:24:46;22.20;54.50
25732;DHT22;13585;50.864;4.406;2023-05-16T07:27:11;22.20;54.50
25732;DHT22;13585;50.864;4.406;2023-05-16T07:29:37;22.20;54.60
25732;DHT22;13585;50.864;4.406;2023-05-16T07:32:03;22.20;54.70
25732;DHT22;13585;50.864;4.406;2023-05-16T07:34:29;22.20;54.60
25732;DHT22;13585;50.864;4.406;2023-05-16T07:36:55;22.20;54.70
25732;DHT22;13585;50.864;4.406;2023-05-16T07:39:21;22.20;54.80
25732;DHT22;13585;50.864;4.406;2023-05-16T07:41:47;22.20;54.80
25732;DHT22;13585;50.864;4.406;2023-05-16T07:44:12;22.20;54.80
25732;DHT22;13585;50.864;4.406;2023-05-16T07:46:38;22.20;54.80
25732;DHT22;13585;50.864;4.406;2023-05-16T07:49:03;22.20;54.80
25732;DHT22;13585;50.864;4.406;2023-05-16T07:51:29;22.20;54.80
25732;DHT22;13585;50.864;4.406;2023-05-16T07:53:54;22.20;54.90
25732;DHT22;13585;50.864;4.406;2023-05-16T07:56:20;22.20;54.90
25732;DHT22;13585;50.864;4.406;2023-05-16T07:58:47;22.20;54.90
25732;DHT22;13585;50.864;4.406;2023-05-16T08:01:13;22.20;55.00
25732;DHT22;13585;50.864;4.406;2023-05-16T08:03:39;22.20;55.00
25732;DHT22;13585;50.864;4.406;2023-05-16T08:06:04;22.20;55.00
25732;DHT22;13585;50.864;4.406;2023-05-16T08:08:30;22.20;54.90
25732;DHT22;13585;50.864;4.406;2023-05-16T08:10:56;22.20;54.90
25732;DHT22;13585;50.864;4.406;2023-05-16T08:13:21;22.20;54.90
25732;DHT22;13585;50.864;4.406;2023-05-16T08:15:47;22.20;55.00
25732;DHT22;13585;50.864;4.406;2023-05-16T08:18:13;22.20;55.00
25732;DHT22;13585;50.864;4.406;2023-05-16T08:20:40;22.20;55.00
25732;DHT22;13585;50.864;4.406;2023-05-16T08:23:07;22.20;55.00
25732;DHT22;13585;50.864;4.406;2023-05-16T08:25:33;22.30;55.00
25732;DHT22;13585;50.864;4.406;2023-05-16T08:27:59;22.30;55.00
25732;DHT22;13585;50.864;4.406;2023-05-16T08:30:27;22.30;55.10
25732;DHT22;13585;50.864;4.406;2023-05-16T08:32:52;22.30;55.10
25732;DHT22;13585;50.864;4.406;2023-05-16T08:35:18;22.30;55.10
25732;DHT22;13585;50.864;4.406;2023-05-16T08:37:44;22.30;55.10
25732;DHT22;13585;50.864;4.406;2023-05-16T08:40:10;22.30;55.10
25732;DHT22;13585;50.864;4.406;2023-05-16T08:42:36;22.20;55.00
25732;DHT22;13585;50.864;4.406;2023-05-16T08:45:02;22.30;55.20
25732;DHT22;13585;50.864;4.406;2023-05-16T08:47:32;22.20;55.10
25732;DHT22;13585;50.864;4.406;2023-05-16T08:50:02;22.30;55.20
25732;DHT22;13585;50.864;4.406;2023-05-16T08:52:30;22.30;55.20
25732;DHT22;13585;50.864;4.406;2023-05-16T08:55:00;22.20;55.10
25732;DHT22;13585;50.864;4.406;2023-05-16T08:57:26;22.30;55.20
25732;DHT22;13585;50.864;4.406;2023-05-16T08:59:53;22.20;55.20
25732;DHT22;13585;50.864;4.406;2023-05-16T09:02:21;22.20;55.20
25732;DHT22;13585;50.864;4.406;2023-05-16T09:04:48;22.20;55.20
25732;DHT22;13585;50.864;4.406;2023-05-16T09:07:14;22.20;55.20
25732;DHT22;13585;50.864;4.406;2023-05-16T09:09:41;22.20;55.20
25732;DHT22;13585;50.864;4.406;2023-05-16T09:12:07;22.20;55.30
25732;DHT22;13585;50.864;4.406;2023-05-16T09:14:33;22.20;55.20
25732;DHT22;13585;50.864;4.406;2023-05-16T09:17:04;22.20;55.30
25732;DHT22;13585;50.864;4.406;2023-05-16T09:19:48;22.20;55.30
25732;DHT22;13585;50.864;4.406;2023-05-16T09:22:17;22.20;55.40
25732;DHT22;13585;50.864;4.406;2023-05-16T09:24:44;22.20;55.20
25732;DHT22;13585;50.864;4.406;2023-05-16T09:27:10;22.20;55.30
25732;DHT22;13585;50.864;4.406;2023-05-16T09:29:36;22.20;55.30
25732;DHT22;13585;50.864;4.406;2023-05-16T09:32:19;22.20;55.30
25732;DHT22;13585;50.864;4.406;2023-05-16T09:34:47;22.20;55.40
25732;DHT22;13585;50.864;4.406;2023-05-16T09:37:14;22.20;55.30
25732;DHT22;13585;50.864;4.406;2023-05-16T09:39:47;22.20;55.30
25732;DHT22;13585;50.864;4.406;2023-05-16T09:42:13;22.20;55.40
25732;DHT22;13585;50.864;4.406;2023-05-16T09:44:40;22.20;55.30
25732;DHT22;13585;50.864;4.406;2023-05-16T09:47:06;22.20;55.30
25732;DHT22;13585;50.864;4.406;2023-05-16T09:49:31;22.20;55.30
25732;DHT22;13585;50.864;4.406;2023-05-16T09:52:05;22.20;55.30
25732;DHT22;13585;50.864;4.406;2023-05-16T09:54:32;22.20;55.30
25732;DHT22;13585;50.864;4.406;2023-05-16T09:56:58;22.20;55.30
25732;DHT22;13585;50.864;4.406;2023-05-16T09:59:27;22.20;55.30
25732;DHT22;13585;50.864;4.406;2023-05-16T10:01:52;22.20;55.30
25732;DHT22;13585;50.864;4.406;2023-05-16T10:04:19;22.20;55.30
25732;DHT22;13585;50.864;4.406;2023-05-16T10:06:45;22.20;55.30
25732;DHT22;13585;50.864;4.406;2023-05-16T10:09:12;22.30;55.30
25732;DHT22;13585;50.864;4.406;2023-05-16T10:11:42;22.20;55.20
25732;DHT22;13585;50.864;4.406;2023-05-16T10:14:10;22.20;55.20
25732;DHT22;13585;50.864;4.406;2023-05-16T10:16:40;22.20;55.10
25732;DHT22;13585;50.864;4.406;2023-05-16T10:19:07;22.20;55.10
25732;DHT22;13585;50.864;4.406;2023-05-16T10:21:33;22.20;55.10
25732;DHT22;13585;50.864;4.406;2023-05-16T10:24:02;22.20;55.10
25732;DHT22;13585;50.864;4.406;2023-05-16T10:26:29;22.20;55.10
25732;DHT22;13585;50.864;4.406;2023-05-16T10:28:56;22.20;55.10
25732;DHT22;13585;50.864;4.406;2023-05-16T10:31:22;22.20;55.20
25732;DHT22;13585;50.864;4.406;2023-05-16T10:33:49;22.20;55.20
25732;DHT22;13585;50.864;4.406;2023-05-16T10:36:15;22.20;55.20
25732;DHT22;13585;50.864;4.406;2023-05-16T10:38:41;22.20;55.30
25732;DHT22;13585;50.864;4.406;2023-05-16T10:41:09;22.20;55.30
25732;DHT22;13585;50.864;4.406;2023-05-16T10:43:34;22.20;55.40
25732;DHT22;13585;50.864;4.406;2023-05-16T10:46:07;22.20;55.40
25732;DHT22;13585;50.864;4.406;2023-05-16T10:48:37;22.20;55.50
25732;DHT22;13585;50.864;4.406;2023-05-16T10:51:32;22.20;55.60
25732;DHT22;13585;50.864;4.406;2023-05-16T10:53:53;22.20;55.60
25732;DHT22;13585;50.864;4.406;2023-05-16T10:56:22;22.20;55.70
25732;DHT22;13585;50.864;4.406;2023-05-16T10:58:48;22.20;55.70
25732;DHT22;13585;50.864;4.406;2023-05-16T11:01:21;22.20;55.80
25732;DHT22;13585;50.864;4.406;2023-05-16T11:06:26;22.20;55.90
25732;DHT22;13585;50.864;4.406;2023-05-16T11:11:58;22.20;56.00
25732;DHT22;13585;50.864;4.406;2023-05-16T11:14:27;22.20;56.00
25732;DHT22;13585;50.864;4.406;2023-05-16T11:17:08;22.20;56.00
25732;DHT22;13585;50.864;4.406;2023-05-16T11:24:55;22.20;56.20
25732;DHT22;13585;50.864;4.406;2023-05-16T11:27:32;22.20;56.20
25732;DHT22;13585;50.864;4.406;2023-05-16T11:32:37;22.20;56.50
25732;DHT22;13585;50.864;4.406;2023-05-16T11:35:08;22.20;56.30
25732;DHT22;13585;50.864;4.406;2023-05-16T11:37:35;22.20;56.30
25732;DHT22;13585;50.864;4.406;2023-05-16T11:40:09;22.20;56.30
25732;DHT22;13585;50.864;4.406;2023-05-16T11:42:41;22.20;56.30
25732;DHT22;13585;50.864;4.406;2023-05-16T11:47:40;22.20;56.30
25732;DHT22;13585;50.864;4.406;2023-05-16T11:50:19;22.30;56.40
25732;DHT22;13585;50.864;4.406;2023-05-16T11:52:50;22.20;56.30
25732;DHT22;13585;50.864;4.406;2023-05-16T11:55:22;22.20;56.30
25732;DHT22;13585;50.864;4.406;2023-05-16T11:57:50;22.20;56.30
25732;DHT22;13585;50.864;4.406;2023-05-16T12:00:20;22.20;56.30
25732;DHT22;13585;50.864;4.406;2023-05-16T12:02:47;22.20;56.40
25732;DHT22;13585;50.864;4.406;2023-05-16T12:05:14;22.20;56.40
25732;DHT22;13585;50.864;4.406;2023-05-16T12:07:42;22.20;56.40
25732;DHT22;13585;50.864;4.406;2023-05-16T12:10:11;22.30;56.50
25732;DHT22;13585;50.864;4.406;2023-05-16T12:12:39;22.20;56.50
25732;DHT22;13585;50.864;4.406;2023-05-16T12:15:06;22.30;56.50
25732;DHT22;13585;50.864;4.406;2023-05-16T12:17:36;22.30;56.60
25732;DHT22;13585;50.864;4.406;2023-05-16T12:20:03;22.20;56.50
25732;DHT22;13585;50.864;4.406;2023-05-16T12:22:38;22.20;56.60
25732;DHT22;13585;50.864;4.406;2023-05-16T12:25:26;22.20;56.60
25732;DHT22;13585;50.864;4.406;2023-05-16T12:27:57;22.20;56.70
25732;DHT22;13585;50.864;4.406;2023-05-16T12:30:23;22.30;56.70
25732;DHT22;13585;50.864;4.406;2023-05-16T12:32:57;22.20;56.70
25732;DHT22;13585;50.864;4.406;2023-05-16T12:35:33;22.30;56.80
25732;DHT22;13585;50.864;4.406;2023-05-16T12:38:02;22.20;56.90
25732;DHT22;13585;50.864;4.406;2023-05-16T12:40:36;22.20;56.90
25732;DHT22;13585;50.864;4.406;2023-05-16T12:43:24;22.20;56.90
25732;DHT22;13585;50.864;4.406;2023-05-16T12:45:54;22.30;56.90
25732;DHT22;13585;50.864;4.406;2023-05-16T12:48:20;22.30;57.00
25732;DHT22;13585;50.864;4.406;2023-05-16T12:50:46;22.30;57.00
25732;DHT22;13585;50.864;4.406;2023-05-16T12:53:13;22.30;57.10
25732;DHT22;13585;50.864;4.406;2023-05-16T12:55:40;22.30;57.10
25732;DHT22;13585;50.864;4.406;2023-05-16T12:58:06;22.20;57.10
25732;DHT22;13585;50.864;4.406;2023-05-16T13:00:32;22.20;57.10
25732;DHT22;13585;50.864;4.406;2023-05-16T13:02:58;22.30;57.20
25732;DHT22;13585;50.864;4.406;2023-05-16T13:05:23;22.20;57.20
25732;DHT22;13585;50.864;4.406;2023-05-16T13:07:49;22.30;57.30
25732;DHT22;13585;50.864;4.406;2023-05-16T13:10:18;22.30;57.30
25732;DHT22;13585;50.864;4.406;2023-05-16T13:12:44;22.30;57.30
25732;DHT22;13585;50.864;4.406;2023-05-16T13:15:11;22.30;57.40
25732;DHT22;13585;50.864;4.406;2023-05-16T13:17:37;22.30;57.40
25732;DHT22;13585;50.864;4.406;2023-05-16T13:20:04;22.30;57.40
25732;DHT22;13585;50.864;4.406;2023-05-16T13:22:33;22.30;57.40
25732;DHT22;13585;50.864;4.406;2023-05-16T13:24:59;22.30;57.50
25732;DHT22;13585;50.864;4.406;2023-05-16T13:27:25;22.30;57.50
25732;DHT22;13585;50.864;4.406;2023-05-16T13:29:50;22.30;57.50
25732;DHT22;13585;50.864;4.406;2023-05-16T13:32:16;22.30;57.50
25732;DHT22;13585;50.864;4.406;2023-05-16T13:34:43;22.30;57.60
25732;DHT22;13585;50.864;4.406;2023-05-16T13:37:09;22.30;57.60
25732;DHT22;13585;50.864;4.406;2023-05-16T13:39:34;22.30;57.70
25732;DHT22;13585;50.864;4.406;2023-05-16T13:42:00;22.30;57.70
25732;DHT22;13585;50.864;4.406;2023-05-16T13:44:28;22.30;57.70
25732;DHT22;13585;50.864;4.406;2023-05-16T13:46:53;22.30;57.70
25732;DHT22;13585;50.864;4.406;2023-05-16T13:49:19;22.30;57.70
25732;DHT22;13585;50.864;4.406;2023-05-16T13:51:45;22.30;57.80
25732;DHT22;13585;50.864;4.406;2023-05-16T13:54:11;22.30;57.90
25732;DHT22;13585;50.864;4.406;2023-05-16T13:56:37;22.30;57.90
25732;DHT22;13585;50.864;4.406;2023-05-16T13:59:03;22.30;57.90
25732;DHT22;13585;50.864;4.406;2023-05-16T14:01:29;22.30;58.00
25732;DHT22;13585;50.864;4.406;2023-05-16T14:03:54;22.40;58.00
25732;DHT22;13585;50.864;4.406;2023-05-16T14:06:20;22.40;58.00
25732;DHT22;13585;50.864;4.406;2023-05-16T14:08:46;22.40;58.10
25732;DHT22;13585;50.864;4.406;2023-05-16T14:11:12;22.40;58.10
25732;DHT22;13585;50.864;4.406;2023-05-16T14:13:37;22.40;58.20
25732;DHT22;13585;50.864;4.406;2023-05-16T14:16:05;22.40;58.20
25732;DHT22;13585;50.864;4.406;2023-05-16T14:18:31;22.40;58.20
25732;DHT22;13585;50.864;4.406;2023-05-16T14:20:57;22.40;58.30
25732;DHT22;13585;50.864;4.406;2023-05-16T14:23:22;22.40;58.30
25732;DHT22;13585;50.864;4.406;2023-05-16T14:25:48;22.40;58.30
25732;DHT22;13585;50.864;4.406;2023-05-16T14:28:16;22.40;58.40
25732;DHT22;13585;50.864;4.406;2023-05-16T14:30:42;22.40;58.40
25732;DHT22;13585;50.864;4.406;2023-05-16T14:33:08;22.40;58.40
25732;DHT22;13585;50.864;4.406;2023-05-16T14:35:33;22.40;58.40
25732;DHT22;13585;50.864;4.406;2023-05-16T14:37:59;22.40;58.40
25732;DHT22;13585;50.864;4.406;2023-05-16T14:40:25;22.40;58.50
25732;DHT22;13585;50.864;4.406;2023-05-16T14:42:50;22.50;58.50
25732;DHT22;13585;50.864;4.406;2023-05-16T14:45:16;22.40;58.50
25732;DHT22;13585;50.864;4.406;2023-05-16T14:47:42;22.40;58.40
25732;DHT22;13585;50.864;4.406;2023-05-16T14:50:08;22.40;58.40
25732;DHT22;13585;50.864;4.406;2023-05-16T14:52:36;22.50;58.50
25732;DHT22;13585;50.864;4.406;2023-05-16T14:55:30;22.40;58.50
25732;DHT22;13585;50.864;4.406;2023-05-16T14:57:56;22.50;58.50
25732;DHT22;13585;50.864;4.406;2023-05-16T15:00:23;22.50;58.50
25732;DHT22;13585;50.864;4.406;2023-05-16T15:02:49;22.40;58.50
25732;DHT22;13585;50.864;4.406;2023-05-16T15:05:14;22.50;58.50
25732;DHT22;13585;50.864;4.406;2023-05-16T15:07:40;22.50;59.20
25732;DHT22;13585;50.864;4.406;2023-05-16T15:10:06;22.50;58.60
25732;DHT22;13585;50.864;4.406;2023-05-16T15:12:32;22.50;58.70
25732;DHT22;13585;50.864;4.406;2023-05-16T15:14:59;22.50;58.70
25732;DHT22;13585;50.864;4.406;2023-05-16T15:17:25;22.50;58.70
25732;DHT22;13585;50.864;4.406;2023-05-16T15:19:50;22.50;58.70
25732;DHT22;13585;50.864;4.406;2023-05-16T15:22:18;22.50;58.70
25732;DHT22;13585;50.864;4.406;2023-05-16T15:24:44;22.50;58.70
25732;DHT22;13585;50.864;4.406;2023-05-16T15:27:10;22.50;58.80
25732;DHT22;13585;50.864;4.406;2023-05-16T15:29:35;22.50;58.80
25732;DHT22;13585;50.864;4.406;2023-05-16T15:32:05;22.50;58.80
25732;DHT22;13585;50.864;4.406;2023-05-16T15:34:32;22.50;58.80
25732;DHT22;13585;50.864;4.406;2023-05-16T15:36:59;22.50;58.70
25732;DHT22;13585;50.864;4.406;2023-05-16T15:39:24;22.50;58.70
25732;DHT22;13585;50.864;4.406;2023-05-16T15:41:51;22.50;58.50
25732;DHT22;13585;50.864;4.406;2023-05-16T15:44:20;22.50;58.50
25732;DHT22;13585;50.864;4.406;2023-05-16T15:46:47;22.50;58.50
25732;DHT22;13585;50.864;4.406;2023-05-16T15:49:13;22.50;58.40
25732;DHT22;13585;50.864;4.406;2023-05-16T15:51:38;22.50;58.40
25732;DHT22;13585;50.864;4.406;2023-05-16T15:54:04;22.50;58.40
25732;DHT22;13585;50.864;4.406;2023-05-16T15:56:30;22.50;58.30
25732;DHT22;13585;50.864;4.406;2023-05-16T15:58:56;22.50;58.30